sensor_id;sensor_type;location;lat;lon;timestamp;temperature;humidity
70089;HTU21D;57460;47.134;19.888;2023-08-21T00:00:55;24.05;69.64
70089;HTU21D;57460;47.134;19.888;2023-08-21T00:03:22;24.06;69.18
70089;HTU21D;57460;47.134;19.888;2023-08-21T00:05:48;24.02;69.36
70089;HTU21D;57460;47.134;19.888;2023-08-21T00:08:13;23.95;72.00
70089;HTU21D;57460;47.134;19.888;2023-08-21T00:10:39;23.95;71.02
70089;HTU21D;57460;47.134;19.888;2023-08-21T00:13:06;23.98;70.42
70089;HTU21D;57460;47.134;19.888;2023-08-21T00:15:32;24.03;70.84
70089;HTU21D;57460;47.134;19.888;2023-08-21T00:17:58;23.91;71.03
70089;HTU21D;57460;47.134;19.888;2023-08-21T00:20:26;23.74;71.84
70089;HTU21D;57460;47.134;19.888;2023-08-21T00:22:52;23.69;70.30
70089;HTU21D;57460;47.134;19.888;2023-08-21T00:25:18;23.76;68.63
70089;HTU21D;57460;47.134;19.888;2023-08-21T00:27:43;23.73;72.81
70089;HTU21D;57460;47.134;19.888;2023-08-21T00:30:09;23.67;74.50
70089;HTU21D;57460;47.134;19.888;2023-08-21T00:32:35;23.61;72.87
70089;HTU21D;57460;47.134;19.888;2023-08-21T00:35:01;23.58;74.32
70089;HTU21D;57460;47.134;19.888;2023-08-21T00:37:27;23.51;75.31
70089;HTU21D;57460;47.134;19.888;2023-08-21T00:39:53;23.41;77.00
70089;HTU21D;57460;47.134;19.888;2023-08-21T00:42:18;23.38;74.95
70089;HTU21D;57460;47.134;19.888;2023-08-21T00:44:44;23.31;76.73
70089;HTU21D;57460;47.134;19.888;2023-08-21T00:47:10;23.34;72.29
70089;HTU21D;57460;47.134;19.888;2023-08-21T00:49:36;23.40;72.77
70089;HTU21D;57460;47.134;19.888;2023-08-21T00:52:02;23.51;73.11
70089;HTU21D;57460;47.134;19.888;2023-08-21T00:54:28;23.56;72.21
70089;HTU21D;57460;47.134;19.888;2023-08-21T00:56:55;23.61;71.04
70089;HTU21D;57460;47.134;19.888;2023-08-21T00:59:22;23.66;72.04
70089;HTU21D;57460;47.134;19.888;2023-08-21T01:01:47;23.65;72.54
70089;HTU21D;57460;47.134;19.888;2023-08-21T01:04:13;23.64;73.02
70089;HTU21D;57460;47.134;19.888;2023-08-21T01:06:39;23.58;70.45
70089;HTU21D;57460;47.134;19.888;2023-08-21T01:09:27;23.57;71.99
70089;HTU21D;57460;47.134;19.888;2023-08-21T01:12:03;23.58;74.53
70089;HTU21D;57460;47.134;19.888;2023-08-21T01:14:43;23.62;72.22
70089;HTU21D;57460;47.134;19.888;2023-08-21T01:17:16;23.69;70.90
70089;HTU21D;57460;47.134;19.888;2023-08-21T01:19:44;23.71;69.94
70089;HTU21D;57460;47.134;19.888;2023-08-21T01:22:11;23.71;71.39
70089;HTU21D;57460;47.134;19.888;2023-08-21T01:24:37;23.67;73.02
70089;HTU21D;57460;47.134;19.888;2023-08-21T01:27:03;23.61;72.75
70089;HTU21D;57460;47.134;19.888;2023-08-21T01:29:30;23.56;72.83
70089;HTU21D;57460;47.134;19.888;2023-08-21T01:32:06;23.58;70.64
70089;HTU21D;57460;47.134;19.888;2023-08-21T01:34:33;23.60;72.85
70089;HTU21D;57460;47.134;19.888;2023-08-21T01:37:03;23.55;72.60
70089;HTU21D;57460;47.134;19.888;2023-08-21T01:39:29;23.55;70.29
70089;HTU21D;57460;47.134;19.888;2023-08-21T01:41:57;23.47;73.45
70089;HTU21D;57460;47.134;19.888;2023-08-21T01:44:23;23.46;71.12
70089;HTU21D;57460;47.134;19.888;2023-08-21T01:46:50;23.42;72.20
70089;HTU21D;57460;47.134;19.888;2023-08-21T01:49:15;23.44;71.81
70089;HTU21D;57460;47.134;19.888;2023-08-21T01:51:43;23.45;72.13
70089;HTU21D;57460;47.134;19.888;2023-08-21T01:54:09;23.47;70.95
70089;HTU21D;57460;47.134;19.888;2023-08-21T01:56:35;23.43;73.22
70089;HTU21D;57460;47.134;19.888;2023-08-21T01:59:02;23.39;71.15
70089;HTU21D;57460;47.134;19.888;2023-08-21T02:01:27;23.35;73.35
70089;HTU21D;57460;47.134;19.888;2023-08-21T02:03:53;23.28;74.80
70089;HTU21D;57460;47.134;19.888;2023-08-21T02:06:19;23.32;74.86
70089;HTU21D;57460;47.134;19.888;2023-08-21T02:08:45;23.32;74.46
70089;HTU21D;57460;47.134;19.888;2023-08-21T02:11:10;23.35;73.60
70089;HTU21D;57460;47.134;19.888;2023-08-21T02:13:36;23.43;70.51
70089;HTU21D;57460;47.134;19.888;2023-08-21T02:16:02;23.46;73.93
70089;HTU21D;57460;47.134;19.888;2023-08-21T02:18:28;23.54;70.41
70089;HTU21D;57460;47.134;19.888;2023-08-21T02:20:55;23.62;69.70
70089;HTU21D;57460;47.134;19.888;2023-08-21T02:23:21;23.68;70.74
70089;HTU21D;57460;47.134;19.888;2023-08-21T02:25:46;23.75;70.94
70089;HTU21D;57460;47.134;19.888;2023-08-21T02:28:14;23.83;70.12
70089;HTU21D;57460;47.134;19.888;2023-08-21T02:30:41;23.87;70.39
70089;HTU21D;57460;47.134;19.888;2023-08-21T02:33:07;23.97;69.05
70089;HTU21D;57460;47.134;19.888;2023-08-21T02:35:33;23.96;69.51
70089;HTU21D;57460;47.134;19.888;2023-08-21T02:37:59;23.96;69.65
70089;HTU21D;57460;47.134;19.888;2023-08-21T02:40:24;23.96;70.61
70089;HTU21D;57460;47.134;19.888;2023-08-21T02:42:50;23.94;70.58
70089;HTU21D;57460;47.134;19.888;2023-08-21T02:45:22;23.96;70.10
70089;HTU21D;57460;47.134;19.888;2023-08-21T02:47:49;23.92;70.73
70089;HTU21D;57460;47.134;19.888;2023-08-21T02:50:14;23.90;71.79
70089;HTU21D;57460;47.134;19.888;2023-08-21T02:52:40;23.91;72.53
70089;HTU21D;57460;47.134;19.888;2023-08-21T02:55:06;23.92;71.38
70089;HTU21D;57460;47.134;19.888;2023-08-21T02:57:32;23.92;71.32
70089;HTU21D;57460;47.134;19.888;2023-08-21T02:59:58;23.90;71.81
70089;HTU21D;57460;47.134;19.888;2023-08-21T03:02:24;23.90;71.62
70089;HTU21D;57460;47.134;19.888;2023-08-21T03:04:50;23.87;72.94
70089;HTU21D;57460;47.134;19.888;2023-08-21T03:07:16;23.83;73.23
70089;HTU21D;57460;47.134;19.888;2023-08-21T03:09:46;23.77;73.28
70089;HTU21D;57460;47.134;19.888;2023-08-21T03:12:14;23.74;72.82
70089;HTU21D;57460;47.134;19.888;2023-08-21T03:14:40;23.72;73.24
70089;HTU21D;57460;47.134;19.888;2023-08-21T03:17:15;23.72;72.43
70089;HTU21D;57460;47.134;19.888;2023-08-21T03:19:41;23.71;71.99
70089;HTU21D;57460;47.134;19.888;2023-08-21T03:22:07;23.74;71.53
70089;HTU21D;57460;47.134;19.888;2023-08-21T03:24:35;23.75;71.81
70089;HTU21D;57460;47.134;19.888;2023-08-21T03:27:02;23.76;71.39
70089;HTU21D;57460;47.134;19.888;2023-08-21T03:29:27;23.77;70.92
70089;HTU21D;57460;47.134;19.888;2023-08-21T03:31:53;23.71;72.09
70089;HTU21D;57460;47.134;19.888;2023-08-21T03:34:20;23.68;70.93
70089;HTU21D;57460;47.134;19.888;2023-08-21T03:36:46;23.58;72.22
70089;HTU21D;57460;47.134;19.888;2023-08-21T03:39:11;23.57;71.87
70089;HTU21D;57460;47.134;19.888;2023-08-21T03:41:38;23.55;71.90
70089;HTU21D;57460;47.134;19.888;2023-08-21T03:44:04;23.51;71.85
70089;HTU21D;57460;47.134;19.888;2023-08-21T03:46:29;23.51;70.71
70089;HTU21D;57460;47.134;19.888;2023-08-21T03:48:55;23.46;71.69
70089;HTU21D;57460;47.134;19.888;2023-08-21T03:51:21;23.41;73.37
70089;HTU21D;57460;47.134;19.888;2023-08-21T03:53:47;23.36;73.11
70089;HTU21D;57460;47.134;19.888;2023-08-21T03:56:13;23.34;72.69
70089;HTU21D;57460;47.134;19.888;2023-08-21T03:58:38;23.32;73.38
70089;HTU21D;57460;47.134;19.888;2023-08-21T04:01:04;23.32;73.49
70089;HTU21D;57460;47.134;19.888;2023-08-21T04:03:30;23.32;72.58
70089;HTU21D;57460;47.134;19.888;2023-08-21T04:05:55;23.30;73.53
70089;HTU21D;57460;47.134;19.888;2023-08-21T04:08:24;23.29;72.21
70089;HTU21D;57460;47.134;19.888;2023-08-21T04:10:51;23.28;71.79
70089;HTU21D;57460;47.134;19.888;2023-08-21T04:13:24;23.24;73.16
70089;HTU21D;57460;47.134;19.888;2023-08-21T04:15:53;23.22;74.49
70089;HTU21D;57460;47.134;19.888;2023-08-21T04:18:18;23.24;73.03
70089;HTU21D;57460;47.134;19.888;2023-08-21T04:20:44;23.25;74.63
70089;HTU21D;57460;47.134;19.888;2023-08-21T04:23:10;23.27;73.94
70089;HTU21D;57460;47.134;19.888;2023-08-21T04:25:36;23.31;73.33
70089;HTU21D;57460;47.134;19.888;2023-08-21T04:28:02;23.35;73.32
70089;HTU21D;57460;47.134;19.888;2023-08-21T04:30:42;23.39;73.19
70089;HTU21D;57460;47.134;19.888;2023-08-21T04:33:08;23.43;73.09
70089;HTU21D;57460;47.134;19.888;2023-08-21T04:35:50;23.45;73.10
70089;HTU21D;57460;47.134;19.888;2023-08-21T04:38:23;23.50;72.32
70089;HTU21D;57460;47.134;19.888;2023-08-21T04:41:00;23.56;71.51
70089;HTU21D;57460;47.134;19.888;2023-08-21T04:43:31;23.54;74.29
70089;HTU21D;57460;47.134;19.888;2023-08-21T04:46:04;23.52;72.70
70089;HTU21D;57460;47.134;19.888;2023-08-21T04:48:30;23.53;73.08
70089;HTU21D;57460;47.134;19.888;2023-08-21T04:50:56;23.53;74.06
70089;HTU21D;57460;47.134;19.888;2023-08-21T04:53:22;23.55;75.70
70089;HTU21D;57460;47.134;19.888;2023-08-21T04:55:51;23.59;75.91
70089;HTU21D;57460;47.134;19.888;2023-08-21T04:58:17;23.66;76.11
70089;HTU21D;57460;47.134;19.888;2023-08-21T05:00:44;23.71;75.07
70089;HTU21D;57460;47.134;19.888;2023-08-21T05:03:11;23.77;73.83
70089;HTU21D;57460;47.134;19.888;2023-08-21T05:05:37;23.81;75.99
70089;HTU21D;57460;47.134;19.888;2023-08-21T05:08:04;23.88;76.08
70089;HTU21D;57460;47.134;19.888;2023-08-21T05:10:32;23.95;76.13
70089;HTU21D;57460;47.134;19.888;2023-08-21T05:13:03;24.02;73.99
70089;HTU21D;57460;47.134;19.888;2023-08-21T05:15:29;24.13;73.12
70089;HTU21D;57460;47.134;19.888;2023-08-21T05:17:58;24.20;75.55
70089;HTU21D;57460;47.134;19.888;2023-08-21T05:20:24;24.29;74.97
70089;HTU21D;57460;47.134;19.888;2023-08-21T05:22:50;24.40;74.28
70089;HTU21D;57460;47.134;19.888;2023-08-21T05:25:16;24.54;73.47
70089;HTU21D;57460;47.134;19.888;2023-08-21T05:27:41;24.66;70.70
70089;HTU21D;57460;47.134;19.888;2023-08-21T05:30:07;24.75;73.93
70089;HTU21D;57460;47.134;19.888;2023-08-21T05:32:33;24.86;72.25
70089;HTU21D;57460;47.134;19.888;2023-08-21T05:34:59;24.99;69.72
70089;HTU21D;57460;47.134;19.888;2023-08-21T05:37:25;25.08;71.01
70089;HTU21D;57460;47.134;19.888;2023-08-21T05:39:52;25.20;70.56
70089;HTU21D;57460;47.134;19.888;2023-08-21T05:42:18;25.31;72.09
70089;HTU21D;57460;47.134;19.888;2023-08-21T05:44:44;25.44;71.90
70089;HTU21D;57460;47.134;19.888;2023-08-21T05:47:10;25.58;71.63
70089;HTU21D;57460;47.134;19.888;2023-08-21T05:49:35;25.68;71.61
70089;HTU21D;57460;47.134;19.888;2023-08-21T05:52:01;25.83;71.29
70089;HTU21D;57460;47.134;19.888;2023-08-21T05:54:27;25.95;71.03
70089;HTU21D;57460;47.134;19.888;2023-08-21T05:56:53;26.12;70.89
70089;HTU21D;57460;47.134;19.888;2023-08-21T05:59:31;26.24;69.40
70089;HTU21D;57460;47.134;19.888;2023-08-21T06:01:57;26.36;67.75
70089;HTU21D;57460;47.134;19.888;2023-08-21T06:04:23;26.52;68.36
70089;HTU21D;57460;47.134;19.888;2023-08-21T06:06:49;26.64;68.42
70089;HTU21D;57460;47.134;19.888;2023-08-21T06:09:15;26.77;68.23
70089;HTU21D;57460;47.134;19.888;2023-08-21T06:11:43;26.90;67.06
70089;HTU21D;57460;47.134;19.888;2023-08-21T06:14:08;27.05;66.36
70089;HTU21D;57460;47.134;19.888;2023-08-21T06:16:34;27.14;67.39
70089;HTU21D;57460;47.134;19.888;2023-08-21T06:19:00;27.25;66.51
70089;HTU21D;57460;47.134;19.888;2023-08-21T06:21:26;27.41;65.95
70089;HTU21D;57460;47.134;19.888;2023-08-21T06:23:51;27.47;66.11
70089;HTU21D;57460;47.134;19.888;2023-08-21T06:26:17;27.57;65.58
70089;HTU21D;57460;47.134;19.888;2023-08-21T06:28:43;27.66;65.68
70089;HTU21D;57460;47.134;19.888;2023-08-21T06:31:09;27.73;65.50
70089;HTU21D;57460;47.134;19.888;2023-08-21T06:33:35;27.85;65.09
70089;HTU21D;57460;47.134;19.888;2023-08-21T06:36:01;27.99;64.69
70089;HTU21D;57460;47.134;19.888;2023-08-21T06:38:27;27.96;66.46
70089;HTU21D;57460;47.134;19.888;2023-08-21T06:40:52;28.06;65.40
70089;HTU21D;57460;47.134;19.888;2023-08-21T06:43:18;28.15;65.68
70089;HTU21D;57460;47.134;19.888;2023-08-21T06:45:44;28.26;65.33
70089;HTU21D;57460;47.134;19.888;2023-08-21T06:48:10;28.46;64.20
70089;HTU21D;57460;47.134;19.888;2023-08-21T06:50:37;28.60;63.34
70089;HTU21D;57460;47.134;19.888;2023-08-21T06:53:03;28.72;63.69
70089;HTU21D;57460;47.134;19.888;2023-08-21T06:55:28;28.76;62.79
70089;HTU21D;57460;47.134;19.888;2023-08-21T06:57:54;28.91;63.31
70089;HTU21D;57460;47.134;19.888;2023-08-21T07:00:20;28.94;62.79
70089;HTU21D;57460;47.134;19.888;2023-08-21T07:02:46;29.07;62.54
70089;HTU21D;57460;47.134;19.888;2023-08-21T07:05:11;29.13;61.52
70089;HTU21D;57460;47.134;19.888;2023-08-21T07:07:37;29.21;59.02
70089;HTU21D;57460;47.134;19.888;2023-08-21T07:10:03;29.29;59.86
70089;HTU21D;57460;47.134;19.888;2023-08-21T07:12:29;29.44;60.76
70089;HTU21D;57460;47.134;19.888;2023-08-21T07:14:55;29.76;60.70
70089;HTU21D;57460;47.134;19.888;2023-08-21T07:17:21;29.85;59.75
70089;HTU21D;57460;47.134;19.888;2023-08-21T07:19:47;29.96;58.06
70089;HTU21D;57460;47.134;19.888;2023-08-21T07:22:14;30.03;58.38
70089;HTU21D;57460;47.134;19.888;2023-08-21T07:24:40;30.18;58.69
70089;HTU21D;57460;47.134;19.888;2023-08-21T07:27:06;30.40;56.47
70089;HTU21D;57460;47.134;19.888;2023-08-21T07:29:31;30.42;57.12
70089;HTU21D;57460;47.134;19.888;2023-08-21T07:31:57;30.49;54.35
70089;HTU21D;57460;47.134;19.888;2023-08-21T07:34:23;30.59;54.85
70089;HTU21D;57460;47.134;19.888;2023-08-21T07:36:49;30.67;55.89
70089;HTU21D;57460;47.134;19.888;2023-08-21T07:39:15;30.80;55.83
70089;HTU21D;57460;47.134;19.888;2023-08-21T07:41:40;31.00;55.08
70089;HTU21D;57460;47.134;19.888;2023-08-21T07:44:06;31.22;55.59
70089;HTU21D;57460;47.134;19.888;2023-08-21T07:46:52;31.31;50.19
70089;HTU21D;57460;47.134;19.888;2023-08-21T07:49:18;31.44;54.70
70089;HTU21D;57460;47.134;19.888;2023-08-21T07:51:44;31.59;53.43
70089;HTU21D;57460;47.134;19.888;2023-08-21T07:54:09;31.73;50.11
70089;HTU21D;57460;47.134;19.888;2023-08-21T07:56:36;31.85;53.25
70089;HTU21D;57460;47.134;19.888;2023-08-21T07:59:02;31.93;51.11
70089;HTU21D;57460;47.134;19.888;2023-08-21T08:01:28;31.96;50.22
70089;HTU21D;57460;47.134;19.888;2023-08-21T08:03:54;32.02;52.76
70089;HTU21D;57460;47.134;19.888;2023-08-21T08:06:20;32.16;53.31
70089;HTU21D;57460;47.134;19.888;2023-08-21T08:08:46;32.22;51.93
70089;HTU21D;57460;47.134;19.888;2023-08-21T08:11:12;32.28;51.11
70089;HTU21D;57460;47.134;19.888;2023-08-21T08:13:37;32.38;50.78
70089;HTU21D;57460;47.134;19.888;2023-08-21T08:16:03;32.47;47.69
70089;HTU21D;57460;47.134;19.888;2023-08-21T08:18:29;32.56;50.71
70089;HTU21D;57460;47.134;19.888;2023-08-21T08:20:55;32.54;46.51
70089;HTU21D;57460;47.134;19.888;2023-08-21T08:23:21;32.71;47.89
70089;HTU21D;57460;47.134;19.888;2023-08-21T08:25:49;32.82;47.69
70089;HTU21D;57460;47.134;19.888;2023-08-21T08:28:15;33.05;51.47
70089;HTU21D;57460;47.134;19.888;2023-08-21T08:30:41;33.19;49.47
70089;HTU21D;57460;47.134;19.888;2023-08-21T08:33:07;33.26;44.55
70089;HTU21D;57460;47.134;19.888;2023-08-21T08:35:33;33.43;47.92
70089;HTU21D;57460;47.134;19.888;2023-08-21T08:37:58;33.67;48.21
70089;HTU21D;57460;47.134;19.888;2023-08-21T08:40:24;33.74;46.46
70089;HTU21D;57460;47.134;19.888;2023-08-21T08:42:50;33.91;48.44
70089;HTU21D;57460;47.134;19.888;2023-08-21T08:45:28;34.02;46.58
70089;HTU21D;57460;47.134;19.888;2023-08-21T08:47:59;34.11;43.55
70089;HTU21D;57460;47.134;19.888;2023-08-21T08:50:29;34.23;47.08
70089;HTU21D;57460;47.134;19.888;2023-08-21T08:52:58;34.37;47.20
70089;HTU21D;57460;47.134;19.888;2023-08-21T08:55:24;34.51;44.92
70089;HTU21D;57460;47.134;19.888;2023-08-21T08:57:51;34.51;39.59
70089;HTU21D;57460;47.134;19.888;2023-08-21T09:00:18;34.60;42.97
70089;HTU21D;57460;47.134;19.888;2023-08-21T09:02:44;34.38;40.51
70089;HTU21D;57460;47.134;19.888;2023-08-21T09:05:09;34.52;43.93
70089;HTU21D;57460;47.134;19.888;2023-08-21T09:07:36;34.56;42.80
70089;HTU21D;57460;47.134;19.888;2023-08-21T09:10:02;34.67;42.88
70089;HTU21D;57460;47.134;19.888;2023-08-21T09:12:32;34.79;37.10
70089;HTU21D;57460;47.134;19.888;2023-08-21T09:14:59;35.04;41.36
70089;HTU21D;57460;47.134;19.888;2023-08-21T09:17:26;35.09;38.65
70089;HTU21D;57460;47.134;19.888;2023-08-21T09:19:52;35.16;40.10
70089;HTU21D;57460;47.134;19.888;2023-08-21T09:22:18;35.40;42.27
70089;HTU21D;57460;47.134;19.888;2023-08-21T09:28:17;35.99;41.52
70089;HTU21D;57460;47.134;19.888;2023-08-21T09:30:52;36.23;41.16
70089;HTU21D;57460;47.134;19.888;2023-08-21T09:33:20;36.36;39.55
70089;HTU21D;57460;47.134;19.888;2023-08-21T09:35:48;36.48;39.33
70089;HTU21D;57460;47.134;19.888;2023-08-21T09:38:14;36.69;39.43
70089;HTU21D;57460;47.134;19.888;2023-08-21T09:40:41;36.42;33.81
70089;HTU21D;57460;47.134;19.888;2023-08-21T09:43:09;36.38;39.23
70089;HTU21D;57460;47.134;19.888;2023-08-21T09:45:36;36.46;35.55
70089;HTU21D;57460;47.134;19.888;2023-08-21T09:48:03;36.60;36.76
70089;HTU21D;57460;47.134;19.888;2023-08-21T09:50:30;36.82;35.28
70089;HTU21D;57460;47.134;19.888;2023-08-21T09:52:57;36.92;33.96
70089;HTU21D;57460;47.134;19.888;2023-08-21T09:55:24;36.89;34.73
70089;HTU21D;57460;47.134;19.888;2023-08-21T09:57:51;36.86;31.95
70089;HTU21D;57460;47.134;19.888;2023-08-21T10:00:30;37.04;37.45
70089;HTU21D;57460;47.134;19.888;2023-08-21T10:03:01;37.22;36.98
70089;HTU21D;57460;47.134;19.888;2023-08-21T10:05:30;37.25;34.53
70089;HTU21D;57460;47.134;19.888;2023-08-21T10:08:00;37.12;34.80
70089;HTU21D;57460;47.134;19.888;2023-08-21T10:10:30;37.23;34.67
70089;HTU21D;57460;47.134;19.888;2023-08-21T10:12:57;37.36;34.31
70089;HTU21D;57460;47.134;19.888;2023-08-21T10:15:23;37.50;36.87
70089;HTU21D;57460;47.134;19.888;2023-08-21T10:17:49;37.66;36.24
70089;HTU21D;57460;47.134;19.888;2023-08-21T10:20:40;37.65;33.15
70089;HTU21D;57460;47.134;19.888;2023-08-21T10:23:06;37.60;35.04
70089;HTU21D;57460;47.134;19.888;2023-08-21T10:25:41;37.78;30.74
70089;HTU21D;57460;47.134;19.888;2023-08-21T10:28:07;37.89;34.03
70089;HTU21D;57460;47.134;19.888;2023-08-21T10:30:33;38.00;34.47
70089;HTU21D;57460;47.134;19.888;2023-08-21T10:33:00;38.16;31.99
70089;HTU21D;57460;47.134;19.888;2023-08-21T10:35:30;38.16;33.75
70089;HTU21D;57460;47.134;19.888;2023-08-21T10:38:14;38.26;32.21
70089;HTU21D;57460;47.134;19.888;2023-08-21T10:41:04;38.35;33.12
70089;HTU21D;57460;47.134;19.888;2023-08-21T10:43:45;38.39;33.81
70089;HTU21D;57460;47.134;19.888;2023-08-21T10:46:11;38.28;34.11
70089;HTU21D;57460;47.134;19.888;2023-08-21T10:48:39;38.22;33.17
70089;HTU21D;57460;47.134;19.888;2023-08-21T10:51:06;38.30;33.34
70089;HTU21D;57460;47.134;19.888;2023-08-21T10:53:33;38.41;33.73
70089;HTU21D;57460;47.134;19.888;2023-08-21T10:56:05;38.41;32.36
70089;HTU21D;57460;47.134;19.888;2023-08-21T10:58:44;38.53;32.56
70089;HTU21D;57460;47.134;19.888;2023-08-21T11:01:16;38.30;32.12
70089;HTU21D;57460;47.134;19.888;2023-08-21T11:03:46;38.32;30.89
70089;HTU21D;57460;47.134;19.888;2023-08-21T11:06:18;38.33;32.14
70089;HTU21D;57460;47.134;19.888;2023-08-21T11:08:44;38.35;31.52
70089;HTU21D;57460;47.134;19.888;2023-08-21T11:11:10;38.23;32.16
70089;HTU21D;57460;47.134;19.888;2023-08-21T11:13:36;38.05;32.00
70089;HTU21D;57460;47.134;19.888;2023-08-21T11:16:04;37.89;33.41
70089;HTU21D;57460;47.134;19.888;2023-08-21T11:18:35;37.81;34.69
70089;HTU21D;57460;47.134;19.888;2023-08-21T11:21:10;37.84;34.37
70089;HTU21D;57460;47.134;19.888;2023-08-21T11:23:39;38.05;34.25
70089;HTU21D;57460;47.134;19.888;2023-08-21T11:26:06;38.07;33.65
70089;HTU21D;57460;47.134;19.888;2023-08-21T11:28:33;38.03;31.93
70089;HTU21D;57460;47.134;19.888;2023-08-21T11:30:59;38.12;32.77
70089;HTU21D;57460;47.134;19.888;2023-08-21T11:33:27;38.25;32.39
70089;HTU21D;57460;47.134;19.888;2023-08-21T11:35:54;38.30;33.03
70089;HTU21D;57460;47.134;19.888;2023-08-21T11:38:22;38.33;29.80
70089;HTU21D;57460;47.134;19.888;2023-08-21T11:41:02;38.48;30.93
70089;HTU21D;57460;47.134;19.888;2023-08-21T11:43:39;38.50;29.41
70089;HTU21D;57460;47.134;19.888;2023-08-21T11:46:06;38.62;32.02
70089;HTU21D;57460;47.134;19.888;2023-08-21T11:48:33;38.74;31.96
70089;HTU21D;57460;47.134;19.888;2023-08-21T11:51:01;38.80;31.22
70089;HTU21D;57460;47.134;19.888;2023-08-21T11:53:34;38.71;31.48
70089;HTU21D;57460;47.134;19.888;2023-08-21T11:56:00;38.67;29.88
70089;HTU21D;57460;47.134;19.888;2023-08-21T11:58:27;38.80;31.16
70089;HTU21D;57460;47.134;19.888;2023-08-21T12:00:54;38.92;30.25
70089;HTU21D;57460;47.134;19.888;2023-08-21T12:03:20;38.94;31.22
70089;HTU21D;57460;47.134;19.888;2023-08-21T12:05:45;39.11;28.97
70089;HTU21D;57460;47.134;19.888;2023-08-21T12:08:11;39.26;31.08
70089;HTU21D;57460;47.134;19.888;2023-08-21T12:10:37;38.97;29.85
70089;HTU21D;57460;47.134;19.888;2023-08-21T12:13:03;38.95;29.58
70089;HTU21D;57460;47.134;19.888;2023-08-21T12:15:29;39.00;30.16
70089;HTU21D;57460;47.134;19.888;2023-08-21T12:17:55;39.10;28.91
70089;HTU21D;57460;47.134;19.888;2023-08-21T12:20:21;39.14;29.75
70089;HTU21D;57460;47.134;19.888;2023-08-21T12:22:47;39.24;31.10
70089;HTU21D;57460;47.134;19.888;2023-08-21T12:25:13;39.12;30.58
70089;HTU21D;57460;47.134;19.888;2023-08-21T12:27:39;39.13;30.29
70089;HTU21D;57460;47.134;19.888;2023-08-21T12:30:06;39.27;31.45
70089;HTU21D;57460;47.134;19.888;2023-08-21T12:32:34;39.27;30.91
70089;HTU21D;57460;47.134;19.888;2023-08-21T12:35:00;39.37;30.90
70089;HTU21D;57460;47.134;19.888;2023-08-21T12:37:25;39.54;30.22
70089;HTU21D;57460;47.134;19.888;2023-08-21T12:39:53;39.39;29.26
70089;HTU21D;57460;47.134;19.888;2023-08-21T12:42:19;39.04;29.80
70089;HTU21D;57460;47.134;19.888;2023-08-21T12:44:45;38.95;30.27
70089;HTU21D;57460;47.134;19.888;2023-08-21T12:47:10;38.83;29.21
70089;HTU21D;57460;47.134;19.888;2023-08-21T12:49:36;38.77;28.14
70089;HTU21D;57460;47.134;19.888;2023-08-21T12:52:02;38.67;30.35
70089;HTU21D;57460;47.134;19.888;2023-08-21T12:54:30;38.61;30.67
70089;HTU21D;57460;47.134;19.888;2023-08-21T12:56:56;38.74;31.83
70089;HTU21D;57460;47.134;19.888;2023-08-21T12:59:22;38.97;30.64
70089;HTU21D;57460;47.134;19.888;2023-08-21T13:01:48;39.19;30.58
70089;HTU21D;57460;47.134;19.888;2023-08-21T13:04:13;39.22;30.51
70089;HTU21D;57460;47.134;19.888;2023-08-21T13:06:39;39.34;30.71
70089;HTU21D;57460;47.134;19.888;2023-08-21T13:09:06;39.34;28.61
70089;HTU21D;57460;47.134;19.888;2023-08-21T13:11:32;39.32;30.13
70089;HTU21D;57460;47.134;19.888;2023-08-21T13:13:58;39.20;30.14
70089;HTU21D;57460;47.134;19.888;2023-08-21T13:16:24;39.07;29.84
70089;HTU21D;57460;47.134;19.888;2023-08-21T13:18:50;38.92;27.60
70089;HTU21D;57460;47.134;19.888;2023-08-21T13:21:16;38.97;28.68
70089;HTU21D;57460;47.134;19.888;2023-08-21T13:23:41;38.91;31.05
70089;HTU21D;57460;47.134;19.888;2023-08-21T13:26:07;39.07;30.32
70089;HTU21D;57460;47.134;19.888;2023-08-21T13:28:33;39.22;29.27
70089;HTU21D;57460;47.134;19.888;2023-08-21T13:30:59;39.38;29.10
70089;HTU21D;57460;47.134;19.888;2023-08-21T13:33:25;39.25;28.18
70089;HTU21D;57460;47.134;19.888;2023-08-21T13:35:51;39.23;29.61
70089;HTU21D;57460;47.134;19.888;2023-08-21T13:38:17;39.06;29.79
70089;HTU21D;57460;47.134;19.888;2023-08-21T13:40:43;38.92;29.68
70089;HTU21D;57460;47.134;19.888;2023-08-21T13:43:08;38.88;29.99
70089;HTU21D;57460;47.134;19.888;2023-08-21T13:45:38;38.70;29.14
70089;HTU21D;57460;47.134;19.888;2023-08-21T13:48:05;38.69;31.23
70089;HTU21D;57460;47.134;19.888;2023-08-21T13:50:31;38.74;30.84
70089;HTU21D;57460;47.134;19.888;2023-08-21T13:52:57;38.67;30.03
70089;HTU21D;57460;47.134;19.888;2023-08-21T13:55:23;38.65;30.33
70089;HTU21D;57460;47.134;19.888;2023-08-21T13:57:49;38.76;29.55
70089;HTU21D;57460;47.134;19.888;2023-08-21T14:00:15;38.91;29.91
70089;HTU21D;57460;47.134;19.888;2023-08-21T14:02:43;38.83;29.10
70089;HTU21D;57460;47.134;19.888;2023-08-21T14:05:10;38.95;29.86
70089;HTU21D;57460;47.134;19.888;2023-08-21T14:07:36;39.06;29.76
70089;HTU21D;57460;47.134;19.888;2023-08-21T14:10:03;39.07;29.76
70089;HTU21D;57460;47.134;19.888;2023-08-21T14:12:30;38.91;30.18
70089;HTU21D;57460;47.134;19.888;2023-08-21T14:14:58;38.84;29.59
70089;HTU21D;57460;47.134;19.888;2023-08-21T14:17:27;38.70;28.93
70089;HTU21D;57460;47.134;19.888;2023-08-21T14:19:53;38.49;30.40
70089;HTU21D;57460;47.134;19.888;2023-08-21T14:22:19;38.31;31.14
70089;HTU21D;57460;47.134;19.888;2023-08-21T14:24:45;38.16;31.08
70089;HTU21D;57460;47.134;19.888;2023-08-21T14:27:11;38.14;31.45
70089;HTU21D;57460;47.134;19.888;2023-08-21T14:29:43;38.14;30.54
70089;HTU21D;57460;47.134;19.888;2023-08-21T14:32:13;38.00;30.61
70089;HTU21D;57460;47.134;19.888;2023-08-21T14:38:37;37.38;31.54
70089;HTU21D;57460;47.134;19.888;2023-08-21T14:41:03;37.32;31.69
70089;HTU21D;57460;47.134;19.888;2023-08-21T14:43:38;37.19;31.99
70089;HTU21D;57460;47.134;19.888;2023-08-21T14:46:04;37.22;31.83
70089;HTU21D;57460;47.134;19.888;2023-08-21T14:48:30;37.14;32.51
70089;HTU21D;57460;47.134;19.888;2023-08-21T14:50:56;37.28;31.84
70089;HTU21D;57460;47.134;19.888;2023-08-21T14:56:48;37.04;32.41
70089;HTU21D;57460;47.134;19.888;2023-08-21T14:59:14;37.17;31.18
70089;HTU21D;57460;47.134;19.888;2023-08-21T15:01:40;37.10;31.49
70089;HTU21D;57460;47.134;19.888;2023-08-21T15:04:07;37.07;31.34
70089;HTU21D;57460;47.134;19.888;2023-08-21T15:06:34;37.11;31.58
70089;HTU21D;57460;47.134;19.888;2023-08-21T15:09:01;37.18;32.05
70089;HTU21D;57460;47.134;19.888;2023-08-21T15:11:30;37.21;31.22
70089;HTU21D;57460;47.134;19.888;2023-08-21T15:13:55;37.19;31.58